Terminal Aerodrome Forecast
Issued by NWS Sioux Falls, SD

Home | Current Version | Previous Version | Graphics & Text | Print | Product List | Glossary Off
Versions: 1 2 3 4 5 6 7 8 9 10 11 12 13 14 15 16 17 18

000
FTUS43 KFSD 231130
TAFFSD
TAF
KFSD 231130Z 2312/2412 14007KT P6SM BKN060
     FM231500 15010KT P6SM SCT035 BKN050
     FM232000 14013KT P6SM BKN035
     FM240300 12009KT P6SM -SHRA OVC025
     FM240500 13011KT 4SM -SHRA OVC015=

USA.gov is the U.S. government's official web portal to all federal, state and local government web resources and services.